createdAt,value
2019-04-23T00:04:16.626Z,2.30
2019-04-23T00:09:40.969Z,2.20
2019-04-23T00:15:06.686Z,2.47
2019-04-23T00:26:08.735Z,2.53
2019-04-23T00:31:20.942Z,2.37
2019-04-23T00:36:36.402Z,2.90
2019-04-23T00:42:06.919Z,2.80
2019-04-23T00:47:01.299Z,2.70
2019-04-23T01:03:03.556Z,2.47
2019-04-23T01:08:20.127Z,2.70
2019-04-23T01:13:40.738Z,3.20
2019-04-23T01:24:17.736Z,3.00
2019-04-23T01:29:58.562Z,2.87
2019-04-23T01:35:17.794Z,3.80
2019-04-23T01:40:34.839Z,3.27
2019-04-23T01:45:43.459Z,5.47
2019-04-23T01:56:24.185Z,3.57
2019-04-23T02:01:44.653Z,3.83
2019-04-23T02:06:58.620Z,3.63
2019-04-23T02:12:18.176Z,3.80
2019-04-23T02:17:38.761Z,4.30
2019-04-23T02:28:25.350Z,3.80
2019-04-23T02:39:09.510Z,3.83
2019-04-23T02:55:04.502Z,4.17
2019-04-23T03:05:36.450Z,3.50
2019-04-23T03:10:59.749Z,3.70
2019-04-23T03:16:39.549Z,4.03
2019-04-23T03:22:01.512Z,3.83
2019-04-23T03:37:55.968Z,3.97
2019-04-23T03:48:32.419Z,4.03
2019-04-23T03:53:54.394Z,3.90
2019-04-23T03:59:11.085Z,4.20
2019-04-23T04:04:31.174Z,4.20
2019-04-23T04:09:45.687Z,3.70
2019-04-23T04:15:07.782Z,3.63
2019-04-23T04:25:33.602Z,4.20
2019-04-23T04:30:49.468Z,4.00
2019-04-23T04:36:14.110Z,3.70
2019-04-23T04:46:47.768Z,3.97
2019-04-23T04:52:14.104Z,4.07
2019-04-23T04:57:36.731Z,4.50
2019-04-23T05:07:54.443Z,3.83
2019-04-23T05:24:02.876Z,4.30
2019-04-23T05:29:23.314Z,4.03
2019-04-23T05:34:27.317Z,3.97
2019-04-23T05:39:45.419Z,4.13
2019-04-23T05:45:02.141Z,4.00
2019-04-23T05:55:42.698Z,4.17
2019-04-23T06:07:24.948Z,4.50
2019-04-23T06:12:21.406Z,4.20
2019-04-23T06:17:43.115Z,6.20
2019-04-23T06:23:01.052Z,4.47
2019-04-23T06:28:21.217Z,3.40
2019-04-23T06:33:32.231Z,4.80
2019-04-23T06:44:19.237Z,4.47
2019-04-23T06:54:56.499Z,4.77
2019-04-23T07:00:06.581Z,4.10
2019-04-23T07:05:28.027Z,4.03
2019-04-23T07:10:40.356Z,4.90
2019-04-23T07:15:55.188Z,4.20
2019-04-23T07:21:17.919Z,4.73
2019-04-23T07:26:39.048Z,4.70
2019-04-23T07:31:53.816Z,4.20
2019-04-23T07:37:22.878Z,4.03
2019-04-23T07:42:35.363Z,4.50
2019-04-23T07:53:23.079Z,4.57
2019-04-23T07:58:39.353Z,5.03
2019-04-23T08:04:04.702Z,4.67
2019-04-23T08:14:41.893Z,4.77
2019-04-23T08:25:37.231Z,5.07
2019-04-23T08:30:57.216Z,5.33
2019-04-23T08:36:11.709Z,5.37
2019-04-23T08:46:56.971Z,4.47
2019-04-23T08:52:13.487Z,4.77
2019-04-23T08:57:27.269Z,4.47
2019-04-23T09:02:55.222Z,4.50
2019-04-23T09:08:19.123Z,3.80
2019-04-23T09:18:37.233Z,3.67
2019-04-23T09:23:56.249Z,3.40
2019-04-23T09:29:19.782Z,3.83
2019-04-23T09:35:09.284Z,3.97
2019-04-23T09:41:08.465Z,3.80
2019-04-23T09:46:12.308Z,3.67
2019-04-23T09:51:22.339Z,3.97
2019-04-23T09:56:41.583Z,3.40
2019-04-23T10:01:50.140Z,3.50
2019-04-23T10:07:06.810Z,3.60
2019-04-23T10:12:09.454Z,3.13
2019-04-23T10:17:26.233Z,3.53
2019-04-23T10:22:42.189Z,3.23
2019-04-23T10:28:02.825Z,3.80
2019-04-23T10:33:15.837Z,3.33
2019-04-23T10:38:34.618Z,3.10
2019-04-23T10:44:00.766Z,2.73
2019-04-23T10:55:12.118Z,3.50
2019-04-23T11:00:32.274Z,3.37
2019-04-23T11:06:06.770Z,3.40
2019-04-23T11:21:47.966Z,3.00
2019-04-23T11:27:10.352Z,3.43
2019-04-23T11:32:42.841Z,3.23
2019-04-23T11:38:11.882Z,3.00
2019-04-23T11:42:57.942Z,3.07
2019-04-23T11:48:33.246Z,3.10
2019-04-23T11:53:36.033Z,3.60
2019-04-23T11:58:45.796Z,3.47
2019-04-23T12:04:40.770Z,3.30
2019-04-23T12:10:03.092Z,2.90
2019-04-23T12:15:25.335Z,2.73
2019-04-23T12:20:37.603Z,3.10
2019-04-23T12:26:03.140Z,3.10
2019-04-23T12:31:17.374Z,3.20
2019-04-23T12:42:13.618Z,2.40
2019-04-23T12:47:25.452Z,2.83
2019-04-23T13:03:25.748Z,2.80
2019-04-23T13:08:33.242Z,2.50
2019-04-23T13:13:47.861Z,2.63
2019-04-23T13:19:37.313Z,4.90
2019-04-23T13:24:40.791Z,3.20
2019-04-23T13:29:56.813Z,2.77
2019-04-23T13:41:04.651Z,3.60
2019-04-23T13:46:14.170Z,2.80
2019-04-23T13:51:33.918Z,3.13
2019-04-23T13:57:27.174Z,2.90
2019-04-23T14:02:24.916Z,2.63
2019-04-23T14:07:56.525Z,2.70
2019-04-23T14:13:01.944Z,2.60
2019-04-23T14:18:43.662Z,2.50
2019-04-23T14:24:11.998Z,2.83
2019-04-23T14:29:24.811Z,2.77
2019-04-23T14:34:40.991Z,2.20
2019-04-23T14:40:05.769Z,2.23
2019-04-23T14:45:31.252Z,1.90
2019-04-23T14:56:01.207Z,2.07
2019-04-23T15:01:34.829Z,2.37
2019-04-23T15:12:02.166Z,2.23
2019-04-23T15:17:12.779Z,2.43
2019-04-23T15:22:32.884Z,2.20
2019-04-23T15:33:22.342Z,2.43
2019-04-23T15:38:33.943Z,2.27
2019-04-23T15:43:41.061Z,1.97
2019-04-23T15:49:07.257Z,2.57
2019-04-23T15:54:19.540Z,2.60
2019-04-23T15:59:40.848Z,2.00
2019-04-23T16:04:24.156Z,2.27
2019-04-23T16:10:17.817Z,2.17
2019-04-23T16:15:21.949Z,2.97
2019-04-23T16:20:58.427Z,2.37
2019-04-23T16:26:12.463Z,1.93
2019-04-23T16:36:55.780Z,2.07
2019-04-23T16:42:14.927Z,1.93
2019-04-23T16:52:51.822Z,2.10
2019-04-23T16:58:13.527Z,2.23
2019-04-23T17:03:26.245Z,1.87
2019-04-23T17:14:02.674Z,2.33
2019-04-23T17:19:16.561Z,2.37
2019-04-23T17:24:51.756Z,2.30
2019-04-23T17:30:00.197Z,2.60
2019-04-23T17:35:17.517Z,2.40
2019-04-23T17:40:39.493Z,2.30
2019-04-23T17:46:08.883Z,2.27
2019-04-23T17:51:25.355Z,2.60
2019-04-23T18:02:30.419Z,2.70
2019-04-23T18:07:37.805Z,2.70
2019-04-23T18:12:43.897Z,2.80
2019-04-23T18:23:13.605Z,2.93
2019-04-23T18:28:37.271Z,2.90
2019-04-23T18:34:08.595Z,2.80
2019-04-23T18:39:29.470Z,2.63
2019-04-23T18:44:42.074Z,3.03
2019-04-23T18:50:03.830Z,3.60
2019-04-23T18:55:25.469Z,2.60
2019-04-23T19:00:50.052Z,2.40
2019-04-23T19:06:25.788Z,2.50
2019-04-23T19:17:30.410Z,2.53
2019-04-23T19:22:32.703Z,2.63
2019-04-23T19:27:38.916Z,2.63
2019-04-23T19:33:14.300Z,2.40
2019-04-23T19:38:26.779Z,2.30
2019-04-23T19:43:49.288Z,2.10
2019-04-23T19:49:09.878Z,2.20
2019-04-23T19:54:34.024Z,2.00
2019-04-23T19:59:45.110Z,2.07
2019-04-23T20:04:55.145Z,1.97
2019-04-23T20:10:20.058Z,2.23
2019-04-23T20:15:41.376Z,2.20
2019-04-23T20:20:54.247Z,2.33
2019-04-23T20:37:13.660Z,2.30
2019-04-23T20:47:45.454Z,2.60
2019-04-23T20:52:54.765Z,2.33
2019-04-23T20:58:23.140Z,2.63
2019-04-23T21:03:47.350Z,2.50
2019-04-23T21:14:31.869Z,2.80
2019-04-23T21:19:42.121Z,2.90
2019-04-23T21:24:54.249Z,2.77
2019-04-23T21:30:46.446Z,3.33
2019-04-23T21:41:54.796Z,2.87
2019-04-23T21:46:58.797Z,2.90
2019-04-23T21:52:11.546Z,2.83
2019-04-23T22:02:59.456Z,2.77
2019-04-23T22:08:10.746Z,3.13
2019-04-23T22:13:29.154Z,2.73
2019-04-23T22:18:57.228Z,3.50
2019-04-23T22:24:02.407Z,3.53
2019-04-23T22:29:18.382Z,2.80
2019-04-23T22:34:38.927Z,3.00
2019-04-23T22:39:58.005Z,3.07
2019-04-23T22:50:27.892Z,2.90
2019-04-23T22:55:49.835Z,3.23
2019-04-23T23:01:43.111Z,2.90
2019-04-23T23:17:33.433Z,3.10
2019-04-23T23:28:07.949Z,2.87
2019-04-23T23:33:20.292Z,3.00
2019-04-23T23:38:42.178Z,3.00
2019-04-23T23:44:16.741Z,3.20
2019-04-23T23:49:11.399Z,2.97
2019-04-23T23:54:30.919Z,3.10
